createdAt,value
2018-03-25T00:00:41.837Z,49.95
2018-03-25T00:03:10.434Z,47.42
2018-03-25T00:05:39.054Z,58.40
2018-03-25T00:08:07.660Z,47.58
2018-03-25T00:10:36.209Z,56.25
2018-03-25T00:13:04.915Z,57.78
2018-03-25T00:15:33.542Z,61.67
2018-03-25T00:18:02.121Z,63.92
2018-03-25T00:20:30.773Z,66.15
2018-03-25T00:23:01.144Z,70.15
2018-03-25T00:25:29.735Z,65.05
2018-03-25T00:27:58.321Z,72.97
2018-03-25T00:30:26.870Z,77.90
2018-03-25T00:32:55.493Z,74.18
2018-03-25T00:35:24.127Z,76.70
2018-03-25T00:37:52.670Z,79.18
2018-03-25T00:40:21.460Z,82.18
2018-03-25T00:42:50.044Z,84.07
2018-03-25T00:45:18.620Z,80.00
2018-03-25T00:47:47.225Z,78.85
2018-03-25T00:50:15.815Z,77.22
2018-03-25T00:52:44.399Z,81.35
2018-03-25T00:55:12.945Z,76.55
2018-03-25T00:57:42.039Z,69.80
2018-03-25T01:00:10.832Z,91.15
2018-03-25T01:02:39.452Z,83.07
2018-03-25T01:05:08.053Z,105.40
2018-03-25T01:07:36.794Z,103.93
2018-03-25T01:10:05.450Z,102.28
2018-03-25T01:12:34.108Z,94.43
2018-03-25T01:15:02.862Z,95.53
2018-03-25T01:17:31.652Z,91.28
2018-03-25T01:20:00.294Z,95.68
2018-03-25T01:22:29.835Z,99.13
2018-03-25T01:24:58.400Z,103.53
2018-03-25T01:27:27.652Z,137.70
2018-03-25T01:29:56.397Z,142.02
2018-03-25T01:32:25.006Z,102.47
2018-03-25T01:34:53.645Z,92.00
2018-03-25T01:37:22.250Z,102.30
2018-03-25T01:39:50.872Z,102.53
2018-03-25T01:42:19.469Z,104.60
2018-03-25T01:44:48.140Z,89.82
2018-03-25T01:47:16.723Z,93.97
2018-03-25T01:49:45.279Z,103.72
2018-03-25T01:52:13.840Z,102.95
2018-03-25T01:54:42.420Z,93.28
2018-03-25T01:57:11.010Z,86.87
2018-03-25T01:59:39.655Z,81.80
2018-03-25T02:02:08.883Z,92.62
2018-03-25T02:04:37.486Z,97.10
2018-03-25T02:07:06.049Z,104.03
2018-03-25T02:09:34.751Z,98.75
2018-03-25T02:12:04.467Z,89.28
2018-03-25T02:14:33.073Z,89.47
2018-03-25T02:17:01.620Z,84.85
2018-03-25T02:19:30.528Z,75.12
2018-03-25T02:21:59.117Z,69.47
2018-03-25T02:24:28.685Z,71.00
2018-03-25T02:26:57.479Z,71.97
2018-03-25T02:29:26.136Z,70.30
2018-03-25T02:31:54.707Z,76.55
2018-03-25T02:34:23.689Z,74.25
2018-03-25T02:36:52.406Z,67.80
2018-03-25T02:39:21.115Z,65.87
2018-03-25T02:41:49.781Z,68.68
2018-03-25T02:44:18.416Z,63.92
2018-03-25T02:46:47.028Z,64.43
2018-03-25T02:49:15.686Z,62.08
2018-03-25T02:51:44.308Z,61.95
2018-03-25T02:54:12.939Z,63.78
2018-03-25T02:56:41.575Z,59.28
2018-03-25T02:59:10.202Z,59.47
2018-03-25T03:01:38.827Z,57.67
2018-03-25T03:04:07.448Z,58.45
2018-03-25T03:06:36.647Z,58.75
2018-03-25T03:09:05.342Z,60.85
2018-03-25T03:11:34.004Z,58.78
2018-03-25T03:14:02.619Z,58.25
2018-03-25T03:16:31.274Z,58.78
2018-03-25T03:18:59.873Z,56.45
2018-03-25T03:21:28.606Z,62.35
2018-03-25T03:23:57.262Z,63.50
2018-03-25T03:26:25.951Z,65.20
2018-03-25T03:28:54.566Z,64.57
2018-03-25T03:31:23.149Z,65.68
2018-03-25T03:33:51.774Z,69.82
2018-03-25T03:36:20.425Z,65.65
2018-03-25T03:38:49.043Z,61.58
2018-03-25T03:41:17.709Z,71.72
2018-03-25T03:43:46.341Z,68.80
2018-03-25T03:46:14.942Z,66.87
2018-03-25T03:48:43.591Z,70.10
2018-03-25T03:51:12.251Z,71.18
2018-03-25T03:53:40.869Z,70.47
2018-03-25T03:56:09.474Z,74.40
2018-03-25T03:58:38.409Z,60.75
2018-03-25T04:01:07.132Z,66.30
2018-03-25T04:03:36.536Z,55.67
2018-03-25T04:06:05.383Z,59.97
2018-03-25T04:08:34.043Z,55.50
2018-03-25T04:11:02.784Z,53.35
2018-03-25T04:13:31.568Z,56.10
2018-03-25T04:16:00.368Z,50.17
2018-03-25T04:18:29.190Z,54.92
2018-03-25T04:20:57.779Z,53.58
2018-03-25T04:23:26.691Z,56.67
2018-03-25T04:25:55.453Z,53.20
2018-03-25T04:28:24.376Z,52.72
2018-03-25T04:30:52.995Z,57.13
2018-03-25T04:33:21.571Z,53.45
2018-03-25T04:35:50.344Z,53.97
2018-03-25T04:38:19.062Z,52.80
2018-03-25T04:40:47.732Z,57.42
2018-03-25T04:43:17.512Z,50.30
2018-03-25T04:45:46.419Z,53.92
2018-03-25T04:48:15.165Z,107.93
2018-03-25T04:50:43.877Z,66.28
2018-03-25T04:53:12.700Z,62.03
2018-03-25T04:55:41.521Z,57.95
2018-03-25T04:58:10.342Z,53.28
2018-03-25T05:00:39.173Z,52.85
2018-03-25T05:03:07.787Z,47.70
2018-03-25T05:05:36.437Z,55.33
2018-03-25T05:08:05.229Z,57.78
2018-03-25T05:10:34.056Z,52.88
2018-03-25T05:13:02.783Z,49.13
2018-03-25T05:15:32.420Z,52.00
2018-03-25T05:18:01.190Z,50.92
2018-03-25T05:20:29.776Z,50.55
2018-03-25T05:22:58.477Z,53.75
2018-03-25T05:25:27.287Z,57.03
2018-03-25T05:27:56.008Z,59.25
2018-03-25T05:30:24.731Z,69.60
2018-03-25T05:32:53.554Z,59.30
2018-03-25T05:35:22.203Z,54.65
2018-03-25T05:37:51.160Z,56.70
2018-03-25T05:40:20.433Z,60.88
2018-03-25T05:42:49.118Z,57.75
2018-03-25T05:45:17.777Z,61.05
2018-03-25T05:47:46.472Z,54.53
2018-03-25T05:50:15.146Z,56.05
2018-03-25T05:52:43.759Z,55.08
2018-03-25T05:55:12.398Z,55.15
2018-03-25T05:57:41.018Z,57.40
2018-03-25T06:00:09.655Z,55.10
2018-03-25T06:02:38.416Z,58.15
2018-03-25T06:05:07.143Z,54.15
2018-03-25T06:07:35.961Z,56.33
2018-03-25T06:10:04.678Z,57.20
2018-03-25T06:12:33.503Z,55.75
2018-03-25T06:15:08.562Z,54.95
2018-03-25T06:17:44.095Z,60.63
2018-03-25T06:20:12.819Z,58.25
2018-03-25T06:22:41.643Z,55.50
2018-03-25T06:25:10.326Z,61.05
2018-03-25T06:27:38.998Z,56.90
2018-03-25T06:30:07.706Z,61.90
2018-03-25T06:32:36.828Z,63.33
2018-03-25T06:35:05.654Z,61.80
2018-03-25T06:37:34.272Z,62.62
2018-03-25T06:40:03.093Z,59.40
2018-03-25T06:42:31.919Z,60.28
2018-03-25T06:45:01.483Z,50.25
2018-03-25T06:47:30.262Z,50.50
2018-03-25T06:49:59.003Z,54.95
2018-03-25T06:52:27.716Z,53.97
2018-03-25T06:54:56.630Z,63.83
2018-03-25T06:57:25.355Z,56.85
2018-03-25T06:59:54.064Z,55.40
2018-03-25T07:02:22.711Z,52.83
2018-03-25T07:04:52.131Z,48.50
2018-03-25T07:07:20.759Z,45.67
2018-03-25T07:09:50.265Z,42.05
2018-03-25T07:12:19.093Z,48.10
2018-03-25T07:14:47.821Z,43.00
2018-03-25T07:17:16.542Z,46.70
2018-03-25T07:19:45.167Z,44.15
2018-03-25T07:22:13.774Z,48.83
2018-03-25T07:24:42.516Z,46.95
2018-03-25T07:27:11.263Z,46.42
2018-03-25T07:29:40.045Z,50.50
2018-03-25T07:32:08.747Z,52.38
2018-03-25T07:34:37.383Z,49.67
2018-03-25T07:37:06.277Z,44.47
2018-03-25T07:39:34.942Z,46.00
2018-03-25T07:42:04.355Z,46.30
2018-03-25T07:44:33.176Z,47.47
2018-03-25T07:47:01.813Z,46.30
2018-03-25T07:49:30.740Z,45.25
2018-03-25T07:51:59.440Z,47.65
2018-03-25T07:54:28.163Z,44.28
2018-03-25T07:56:56.912Z,44.78
2018-03-25T07:59:25.511Z,42.58
2018-03-25T08:01:54.135Z,42.50
2018-03-25T08:04:22.854Z,43.75
2018-03-25T08:06:51.571Z,51.00
2018-03-25T08:09:20.293Z,48.75
2018-03-25T08:11:49.018Z,51.85
2018-03-25T08:14:17.856Z,51.75
2018-03-25T08:16:46.561Z,48.25
2018-03-25T08:19:16.587Z,59.38
2018-03-25T08:21:45.222Z,55.42
2018-03-25T08:24:13.881Z,55.33
2018-03-25T08:26:42.571Z,60.12
2018-03-25T08:29:11.275Z,62.30
2018-03-25T08:31:39.966Z,56.15
2018-03-25T08:34:08.604Z,61.65
2018-03-25T08:36:37.276Z,64.45
2018-03-25T08:39:06.018Z,58.33
2018-03-25T08:41:35.034Z,65.28
2018-03-25T08:44:03.711Z,59.63
2018-03-25T08:46:33.002Z,59.08
2018-03-25T08:49:01.753Z,53.85
2018-03-25T08:51:30.373Z,56.13
2018-03-25T08:53:59.118Z,51.58
2018-03-25T08:56:27.916Z,55.33
2018-03-25T08:58:56.608Z,58.38
2018-03-25T09:01:25.461Z,52.35
2018-03-25T09:03:54.107Z,57.08
2018-03-25T09:06:22.904Z,63.03
2018-03-25T09:08:51.626Z,55.90
2018-03-25T09:11:20.448Z,56.03
2018-03-25T09:13:49.172Z,57.85
2018-03-25T09:16:18.336Z,56.75
2018-03-25T09:18:48.523Z,57.22
2018-03-25T09:21:17.443Z,63.20
2018-03-25T09:23:46.141Z,59.08
2018-03-25T09:26:14.887Z,59.25
2018-03-25T09:28:43.717Z,56.63
2018-03-25T09:31:12.532Z,63.87
2018-03-25T09:33:41.257Z,58.00
2018-03-25T09:36:09.890Z,54.00
2018-03-25T09:38:38.766Z,55.50
2018-03-25T09:41:07.404Z,54.78
2018-03-25T09:43:37.145Z,51.58
2018-03-25T09:46:05.867Z,46.50
2018-03-25T09:48:34.591Z,50.65
2018-03-25T09:51:04.526Z,46.92
2018-03-25T09:53:33.337Z,47.03
2018-03-25T09:56:02.159Z,51.90
2018-03-25T09:58:31.086Z,55.25
2018-03-25T10:01:07.029Z,51.15
2018-03-25T10:03:35.844Z,54.17
2018-03-25T10:06:05.325Z,58.97
2018-03-25T10:08:33.922Z,55.42
2018-03-25T10:11:02.825Z,54.38
2018-03-25T10:13:31.720Z,53.83
2018-03-25T10:16:00.672Z,56.92
2018-03-25T10:18:29.502Z,49.17
2018-03-25T10:20:58.411Z,64.15
2018-03-25T10:23:27.120Z,53.28
2018-03-25T10:25:56.961Z,51.60
2018-03-25T10:28:25.681Z,52.47
2018-03-25T10:30:54.488Z,49.95
2018-03-25T10:33:23.124Z,51.70
2018-03-25T10:35:51.964Z,54.45
2018-03-25T10:38:21.132Z,58.87
2018-03-25T10:40:49.992Z,55.53
2018-03-25T10:43:18.896Z,57.40
2018-03-25T10:45:47.961Z,48.95
2018-03-25T10:48:16.759Z,51.72
2018-03-25T10:50:45.585Z,48.72
2018-03-25T10:53:14.505Z,44.35
2018-03-25T10:55:43.305Z,62.55
2018-03-25T10:58:12.046Z,45.40
2018-03-25T11:00:40.835Z,51.92
2018-03-25T11:03:09.593Z,57.33
2018-03-25T11:05:38.231Z,60.63
2018-03-25T11:08:06.936Z,54.90
2018-03-25T11:10:35.657Z,59.65
2018-03-25T11:13:05.383Z,51.47
2018-03-25T11:15:34.807Z,53.67
2018-03-25T11:18:06.695Z,56.23
2018-03-25T11:20:36.267Z,58.90
2018-03-25T11:23:05.019Z,55.20
2018-03-25T11:25:33.782Z,51.13
2018-03-25T11:28:02.468Z,52.55
2018-03-25T11:30:31.354Z,50.58
2018-03-25T11:33:00.184Z,54.00
2018-03-25T11:35:28.894Z,51.13
2018-03-25T11:37:58.849Z,58.05
2018-03-25T11:40:28.151Z,58.83
2018-03-25T11:42:56.970Z,59.80
2018-03-25T11:45:25.608Z,56.00
2018-03-25T11:47:56.421Z,58.05
2018-03-25T11:50:25.243Z,62.25
2018-03-25T11:52:53.897Z,58.50
2018-03-25T11:55:22.500Z,54.65
2018-03-25T11:57:52.112Z,51.50
2018-03-25T12:00:20.745Z,53.08
2018-03-25T12:02:50.758Z,48.53
2018-03-25T12:05:19.498Z,53.35
2018-03-25T12:07:48.309Z,53.67
2018-03-25T12:10:17.876Z,50.90
2018-03-25T12:12:46.650Z,48.97
2018-03-25T12:15:15.580Z,69.03
2018-03-25T12:17:44.493Z,68.80
2018-03-25T12:20:13.318Z,67.25
2018-03-25T12:22:42.039Z,62.20
2018-03-25T12:25:10.700Z,56.77
2018-03-25T12:27:39.383Z,62.97
2018-03-25T12:30:08.038Z,55.57
2018-03-25T12:32:36.688Z,53.43
2018-03-25T12:35:05.426Z,54.47
2018-03-25T12:37:34.169Z,52.13
2018-03-25T12:40:03.049Z,50.47
2018-03-25T12:42:31.689Z,49.90
2018-03-25T12:45:00.742Z,51.63
2018-03-25T12:47:33.544Z,57.60
2018-03-25T12:50:02.225Z,50.92
2018-03-25T12:52:30.962Z,55.27
2018-03-25T12:55:00.407Z,52.93
2018-03-25T12:57:29.101Z,58.17
2018-03-25T12:59:57.764Z,62.93
2018-03-25T13:02:26.362Z,63.08
2018-03-25T13:04:55.027Z,63.43
2018-03-25T13:07:23.805Z,52.65
2018-03-25T13:09:52.414Z,53.43
2018-03-25T13:12:22.238Z,52.53
2018-03-25T13:14:50.918Z,58.00
2018-03-25T13:17:19.756Z,55.77
2018-03-25T13:19:48.467Z,64.97
2018-03-25T13:22:17.185Z,60.47
2018-03-25T13:24:45.871Z,56.97
2018-03-25T13:27:14.512Z,57.10
2018-03-25T13:29:43.251Z,64.47
2018-03-25T13:32:11.968Z,57.40
2018-03-25T13:34:40.689Z,53.97
2018-03-25T13:37:09.520Z,57.83
2018-03-25T13:39:38.155Z,64.13
2018-03-25T13:42:06.961Z,61.00
2018-03-25T13:44:35.606Z,61.20
2018-03-25T13:47:04.303Z,63.63
2018-03-25T13:49:32.908Z,67.00
2018-03-25T13:52:01.550Z,70.03
2018-03-25T13:54:30.156Z,60.63
2018-03-25T13:56:58.797Z,62.43
2018-03-25T13:59:27.800Z,61.00
2018-03-25T14:01:56.460Z,60.90
2018-03-25T14:04:25.163Z,57.10
2018-03-25T14:06:53.804Z,70.37
2018-03-25T14:09:22.601Z,58.87
2018-03-25T14:11:51.287Z,61.63
2018-03-25T14:14:19.944Z,65.73
2018-03-25T14:16:48.603Z,64.77
2018-03-25T14:19:17.297Z,66.03
2018-03-25T14:21:46.031Z,70.00
2018-03-25T14:24:14.895Z,69.77
2018-03-25T14:26:43.564Z,65.73
2018-03-25T14:29:12.254Z,75.62
2018-03-25T14:31:41.623Z,75.43
2018-03-25T14:34:45.247Z,77.95
2018-03-25T14:37:14.788Z,81.50
2018-03-25T14:39:43.886Z,76.30
2018-03-25T14:42:12.633Z,73.62
2018-03-25T14:44:41.537Z,69.53
2018-03-25T14:47:10.175Z,77.22
2018-03-25T14:49:38.879Z,82.45
2018-03-25T14:52:07.541Z,85.12
2018-03-25T14:54:36.221Z,84.18
2018-03-25T14:57:04.854Z,83.72
2018-03-25T14:59:33.467Z,86.28
2018-03-25T15:02:02.260Z,93.53
2018-03-25T15:04:31.009Z,94.53
2018-03-25T15:06:59.648Z,89.28
2018-03-25T15:09:28.234Z,91.57
2018-03-25T15:11:58.039Z,96.43
2018-03-25T15:14:28.106Z,97.37
2018-03-25T15:16:57.530Z,99.62
2018-03-25T15:19:26.257Z,98.12
2018-03-25T15:21:54.891Z,108.77
2018-03-25T15:24:24.298Z,105.80
2018-03-25T15:26:53.114Z,101.28
2018-03-25T15:29:21.742Z,102.07
2018-03-25T15:31:50.438Z,104.85
2018-03-25T15:34:19.190Z,104.00
2018-03-25T15:36:48.813Z,112.60
2018-03-25T15:39:18.283Z,105.93
2018-03-25T15:41:46.931Z,105.57
2018-03-25T15:44:15.541Z,103.38
2018-03-25T15:46:44.162Z,106.18
2018-03-25T15:49:13.033Z,107.93
2018-03-25T15:51:41.642Z,106.18
2018-03-25T15:54:10.328Z,114.03
2018-03-25T15:56:39.564Z,113.90
2018-03-25T15:59:08.155Z,115.88
2018-03-25T16:01:36.777Z,118.07
2018-03-25T16:04:05.390Z,115.37
2018-03-25T16:06:34.016Z,129.50
2018-03-25T16:09:03.708Z,123.93
2018-03-25T16:11:33.068Z,125.38
2018-03-25T16:14:01.708Z,118.82
2018-03-25T16:16:30.339Z,103.72
2018-03-25T16:19:01.767Z,110.75
2018-03-25T16:21:30.724Z,115.88
2018-03-25T16:23:59.418Z,119.43
2018-03-25T16:26:28.235Z,117.65
2018-03-25T16:28:56.948Z,108.47
2018-03-25T16:31:26.678Z,115.22
2018-03-25T16:33:56.292Z,114.78
2018-03-25T16:36:27.052Z,121.03
2018-03-25T16:38:55.881Z,116.05
2018-03-25T16:41:24.632Z,120.97
2018-03-25T16:43:53.535Z,116.07
2018-03-25T16:46:23.881Z,120.15
2018-03-25T16:48:52.482Z,123.22
2018-03-25T16:51:21.124Z,122.93
2018-03-25T16:53:49.748Z,116.80
2018-03-25T16:56:18.507Z,119.45
2018-03-25T16:58:52.792Z,115.60
2018-03-25T17:04:03.901Z,115.72
2018-03-25T17:06:33.247Z,117.75
2018-03-25T17:09:01.902Z,113.20
2018-03-25T17:11:32.518Z,122.93
2018-03-25T17:14:01.248Z,115.90
2018-03-25T17:16:29.931Z,107.53
2018-03-25T17:18:58.599Z,141.12
2018-03-25T17:21:29.943Z,124.85
2018-03-25T17:24:04.799Z,115.25
2018-03-25T17:26:33.500Z,115.28
2018-03-25T17:29:03.068Z,111.15
2018-03-25T17:31:31.702Z,99.65
2018-03-25T17:34:00.317Z,92.82
2018-03-25T17:36:28.950Z,93.25
2018-03-25T17:39:00.258Z,86.15
2018-03-25T17:41:29.765Z,78.55
2018-03-25T17:44:00.122Z,76.80
2018-03-25T17:46:32.736Z,74.25
2018-03-25T17:49:01.364Z,75.87
2018-03-25T17:51:29.991Z,71.12
2018-03-25T17:53:58.664Z,74.43
2018-03-25T17:56:29.022Z,68.00
2018-03-25T17:58:58.480Z,65.45
2018-03-25T18:01:29.816Z,68.05
2018-03-25T18:04:00.212Z,63.58
2018-03-25T18:06:28.891Z,66.87
2018-03-25T18:08:57.526Z,64.75
2018-03-25T18:11:26.400Z,63.45
2018-03-25T18:13:55.002Z,73.25
2018-03-25T18:16:24.599Z,71.15
2018-03-25T18:18:53.189Z,68.37
2018-03-25T18:21:21.820Z,69.82
2018-03-25T18:23:50.407Z,69.30
2018-03-25T18:26:19.827Z,63.13
2018-03-25T18:28:48.947Z,62.13
2018-03-25T18:31:17.539Z,66.82
2018-03-25T18:33:46.134Z,60.00
2018-03-25T18:36:14.736Z,63.95
2018-03-25T18:38:43.355Z,66.28
2018-03-25T18:41:12.987Z,61.45
2018-03-25T18:43:41.624Z,69.30
2018-03-25T18:46:10.209Z,66.97
2018-03-25T18:48:38.803Z,65.62
2018-03-25T18:51:07.446Z,64.97
2018-03-25T18:53:36.117Z,62.35
2018-03-25T18:56:04.787Z,73.43
2018-03-25T18:58:33.364Z,84.03
2018-03-25T19:01:01.998Z,62.45
2018-03-25T19:03:30.592Z,62.28
2018-03-25T19:05:59.208Z,64.95
2018-03-25T19:08:27.787Z,60.75
2018-03-25T19:10:56.367Z,61.83
2018-03-25T19:13:25.070Z,62.13
2018-03-25T19:15:53.699Z,59.90
2018-03-25T19:18:23.587Z,64.40
2018-03-25T19:20:52.191Z,58.45
2018-03-25T19:23:20.745Z,59.78
2018-03-25T19:25:49.377Z,62.78
2018-03-25T19:28:18.960Z,63.15
2018-03-25T19:30:47.561Z,59.60
2018-03-25T19:33:16.190Z,54.97
2018-03-25T19:35:44.772Z,60.30
2018-03-25T19:38:13.391Z,54.25
2018-03-25T19:40:42.011Z,54.38
2018-03-25T19:43:10.629Z,61.55
2018-03-25T19:45:39.258Z,55.42
2018-03-25T19:48:07.825Z,56.83
2018-03-25T19:50:36.457Z,54.28
2018-03-25T19:53:05.099Z,52.92
2018-03-25T19:55:33.675Z,51.13
2018-03-25T19:58:03.116Z,51.85
2018-03-25T20:00:31.715Z,51.55
2018-03-25T20:03:00.334Z,50.90
2018-03-25T20:05:29.020Z,56.40
2018-03-25T20:07:57.638Z,57.17
2018-03-25T20:10:26.268Z,49.80
2018-03-25T20:12:54.844Z,53.20
2018-03-25T20:15:23.681Z,49.60
2018-03-25T20:17:53.096Z,49.95
2018-03-25T20:20:21.725Z,60.83
2018-03-25T20:22:50.307Z,49.60
2018-03-25T20:25:18.893Z,49.80
2018-03-25T20:27:47.452Z,48.05
2018-03-25T20:30:16.101Z,42.55
2018-03-25T20:32:45.052Z,42.25
2018-03-25T20:35:14.299Z,44.20
2018-03-25T20:37:42.862Z,40.00
2018-03-25T20:40:12.235Z,38.70
2018-03-25T20:42:41.648Z,40.47
2018-03-25T20:45:10.221Z,38.38
2018-03-25T20:47:39.085Z,41.75
2018-03-25T20:50:08.621Z,39.85
2018-03-25T20:52:39.034Z,39.78
2018-03-25T20:55:07.678Z,38.20
2018-03-25T20:57:37.121Z,41.63
2018-03-25T21:00:05.780Z,38.75
2018-03-25T21:02:35.079Z,38.25
2018-03-25T21:05:03.886Z,36.03
2018-03-25T21:07:32.525Z,36.20
2018-03-25T21:10:01.922Z,37.33
2018-03-25T21:12:30.581Z,38.38
2018-03-25T21:14:59.181Z,39.13
2018-03-25T21:17:27.795Z,38.45
2018-03-25T21:19:56.390Z,40.40
2018-03-25T21:22:24.965Z,42.70
2018-03-25T21:24:54.604Z,39.20
2018-03-25T21:27:23.716Z,41.17
2018-03-25T21:29:52.439Z,42.42
2018-03-25T21:32:21.165Z,41.47
2018-03-25T21:34:49.762Z,39.83
2018-03-25T21:37:18.440Z,36.50
2018-03-25T21:39:48.791Z,33.95
2018-03-25T21:42:17.495Z,35.17
2018-03-25T21:44:46.114Z,32.25
2018-03-25T21:47:14.742Z,35.15
2018-03-25T21:49:43.326Z,31.48
2018-03-25T21:52:11.950Z,28.33
2018-03-25T21:54:40.535Z,30.27
2018-03-25T21:57:09.149Z,32.47
2018-03-25T21:59:37.726Z,29.23
2018-03-25T22:02:06.373Z,29.63
2018-03-25T22:04:35.005Z,29.40
2018-03-25T22:07:03.731Z,28.30
2018-03-25T22:09:32.410Z,31.90
2018-03-25T22:12:01.237Z,28.70
2018-03-25T22:14:30.162Z,24.90
2018-03-25T22:16:58.883Z,25.75
2018-03-25T22:19:28.413Z,26.45
2018-03-25T22:21:57.056Z,26.80
2018-03-25T22:24:25.695Z,60.00
2018-03-25T22:26:54.375Z,70.82
2018-03-25T22:29:23.710Z,38.10
2018-03-25T22:31:52.522Z,25.08
2018-03-25T22:34:21.098Z,22.50
2018-03-25T22:36:49.834Z,19.12
2018-03-25T22:39:18.397Z,20.05
2018-03-25T22:41:47.513Z,20.35
2018-03-25T22:44:16.138Z,18.33
2018-03-25T22:46:44.747Z,20.58
2018-03-25T22:49:13.317Z,19.25
2018-03-25T22:51:42.672Z,21.87
2018-03-25T22:54:11.417Z,21.15
2018-03-25T22:56:40.006Z,19.58
2018-03-25T22:59:08.629Z,22.75
2018-03-25T23:01:37.319Z,18.42
2018-03-25T23:04:06.761Z,18.17
2018-03-25T23:06:35.393Z,20.23
2018-03-25T23:09:04.104Z,17.73
2018-03-25T23:11:32.735Z,18.37
2018-03-25T23:14:01.493Z,18.02
2018-03-25T23:16:30.321Z,17.48
2018-03-25T23:18:58.992Z,16.30
2018-03-25T23:21:27.625Z,16.42
2018-03-25T23:23:56.239Z,17.30
2018-03-25T23:26:25.568Z,16.50
2018-03-25T23:28:54.185Z,18.70
2018-03-25T23:31:22.875Z,18.00
2018-03-25T23:33:51.469Z,18.15
2018-03-25T23:36:20.024Z,19.42
2018-03-25T23:38:48.629Z,17.12
2018-03-25T23:41:17.244Z,19.20
2018-03-25T23:43:45.878Z,19.55
2018-03-25T23:46:14.495Z,18.58
2018-03-25T23:48:43.134Z,17.92
2018-03-25T23:51:11.741Z,17.20
2018-03-25T23:53:40.726Z,19.55
2018-03-25T23:56:09.304Z,17.70
2018-03-25T23:58:38.654Z,17.52
